Time,TemperatureF,DewpointF,PressureIn,WindDirection,WindDirectionDegrees,WindSpeedMPH,WindSpeedGustMPH,Humidity,HourlyPrecipIn,Conditions,Clouds,dailyrainin,SoftwareType,DateUTC
2013-06-11 00:00:00,53.9,53.9,29.65,SSW,203,5.0,14.0,100,0.05,,,0.17,Wunderground v.1.13,2013-06-10 23:00:00,
2013-06-11 00:10:00,53.9,53.9,29.65,SSW,203,5.0,14.0,100,0.04,,,0.17,Wunderground v.1.13,2013-06-10 23:10:00,
2013-06-11 00:20:00,53.9,53.9,29.65,SSW,203,5.0,14.0,100,0.04,,,0.17,Wunderground v.1.13,2013-06-10 23:20:00,
2013-06-11 00:30:00,54.0,54.0,29.64,South,180,4.0,13.0,100,0.04,,,0.17,Wunderground v.1.13,2013-06-10 23:30:00,
2013-06-11 00:40:00,53.9,53.9,29.64,South,180,5.0,14.0,100,0.05,,,0.17,Wunderground v.1.13,2013-06-10 23:40:00,
2013-06-11 00:50:00,53.9,53.9,29.64,South,180,5.0,14.0,100,0.05,,,0.17,Wunderground v.1.13,2013-06-10 23:50:00,
2013-06-11 01:00:00,53.8,53.8,29.63,South,180,4.0,14.0,100,0.06,,,0.17,Wunderground v.1.13,2013-06-11 00:00:00,
2013-06-11 01:10:00,53.9,53.9,29.63,SSW,203,4.0,13.0,100,0.07,,,0.17,Wunderground v.1.13,2013-06-11 00:10:00,
2013-06-11 01:20:00,53.9,53.9,29.63,SSW,203,4.0,13.0,100,0.07,,,0.17,Wunderground v.1.13,2013-06-11 00:20:00,
2013-06-11 01:30:00,53.9,53.9,29.63,South,180,7.0,17.0,100,0.06,,,0.17,Wunderground v.1.13,2013-06-11 00:30:00,
2013-06-11 01:40:00,53.9,53.9,29.62,South,180,4.0,12.0,100,0.04,,,0.17,Wunderground v.1.13,2013-06-11 00:40:00,
2013-06-11 01:50:00,53.9,53.9,29.62,South,180,4.0,12.0,100,0.04,,,0.17,Wunderground v.1.13,2013-06-11 00:50:00,
2013-06-11 02:00:00,53.9,53.9,29.61,South,180,5.0,13.0,100,0.01,,,0.17,Wunderground v.1.13,2013-06-11 01:00:00,
2013-06-11 02:10:00,53.9,53.9,29.60,South,180,4.0,12.0,100,0.00,,,0.17,Wunderground v.1.13,2013-06-11 01:10:00,
2013-06-11 02:20:00,53.9,53.9,29.60,South,180,4.0,12.0,100,0.00,,,0.17,Wunderground v.1.13,2013-06-11 01:20:00,
2013-06-11 02:30:00,53.9,53.9,29.60,SSW,203,4.0,12.0,100,0.00,,,0.17,Wunderground v.1.13,2013-06-11 01:30:00,
2013-06-11 02:40:00,53.9,53.9,29.59,SSW,203,3.0,10.0,100,0.01,,,0.17,Wunderground v.1.13,2013-06-11 01:40:00,
2013-06-11 02:50:00,53.9,53.9,29.59,SSW,203,3.0,10.0,100,0.01,,,0.17,Wunderground v.1.13,2013-06-11 01:50:00,
2013-06-11 03:00:00,53.9,53.9,29.58,SSW,203,4.0,12.0,100,0.01,,,0.17,Wunderground v.1.13,2013-06-11 02:00:00,
2013-06-11 03:10:00,53.9,53.9,29.58,SSW,203,2.0,11.0,100,0.02,,,0.17,Wunderground v.1.13,2013-06-11 02:10:00,
2013-06-11 03:20:00,53.9,53.9,29.58,SSW,203,2.0,11.0,100,0.02,,,0.17,Wunderground v.1.13,2013-06-11 02:20:00,
2013-06-11 03:30:00,54.0,54.0,29.57,SSW,203,2.0,10.0,100,0.03,,,0.17,Wunderground v.1.13,2013-06-11 02:30:00,
2013-06-11 03:40:00,54.1,54.1,29.57,SSE,158,2.0,6.0,100,0.03,,,0.17,Wunderground v.1.13,2013-06-11 02:40:00,
2013-06-11 03:50:00,54.1,54.1,29.57,SSE,158,2.0,6.0,100,0.03,,,0.17,Wunderground v.1.13,2013-06-11 02:50:00,
2013-06-11 04:00:00,54.1,54.1,29.56,SSW,203,2.0,7.0,100,0.04,,,0.17,Wunderground v.1.13,2013-06-11 03:00:00,
2013-06-11 04:10:00,54.3,54.3,29.56,SE,135,2.0,10.0,100,0.05,,,0.17,Wunderground v.1.13,2013-06-11 03:10:00,
2013-06-11 04:20:00,54.3,54.3,29.56,SE,135,2.0,10.0,100,0.05,,,0.17,Wunderground v.1.13,2013-06-11 03:20:00,
2013-06-11 04:30:00,54.3,54.3,29.55,South,180,2.0,8.0,100,0.05,,,0.17,Wunderground v.1.13,2013-06-11 03:30:00,
2013-06-11 04:40:00,54.4,54.4,29.55,South,180,2.0,10.0,100,0.05,,,0.17,Wunderground v.1.13,2013-06-11 03:40:00,
2013-06-11 04:50:00,54.4,54.4,29.55,South,180,2.0,10.0,100,0.05,,,0.17,Wunderground v.1.13,2013-06-11 03:50:00,
2013-06-11 05:00:00,54.4,54.4,29.55,South,180,5.0,12.0,100,0.04,,,0.17,Wunderground v.1.13,2013-06-11 04:00:00,
2013-06-11 05:10:00,54.5,54.5,29.55,South,180,4.0,12.0,100,0.02,,,0.17,Wunderground v.1.13,2013-06-11 04:10:00,
2013-06-11 05:20:00,54.5,54.5,29.55,South,180,4.0,12.0,100,0.02,,,0.17,Wunderground v.1.13,2013-06-11 04:20:00,
2013-06-11 05:30:00,54.6,54.6,29.55,South,180,4.0,10.0,100,0.01,,,0.17,Wunderground v.1.13,2013-06-11 04:30:00,
2013-06-11 05:40:00,54.7,54.7,29.55,SW,225,6.0,12.0,100,0.00,,,0.17,Wunderground v.1.13,2013-06-11 04:40:00,
2013-06-11 05:50:00,54.7,54.7,29.55,SW,225,6.0,12.0,100,0.00,,,0.17,Wunderground v.1.13,2013-06-11 04:50:00,
2013-06-11 06:00:00,54.7,54.7,29.56,SW,225,6.0,11.0,100,0.00,,,0.17,Wunderground v.1.13,2013-06-11 05:00:00,
2013-06-11 06:10:00,54.7,54.7,29.56,WSW,248,5.0,10.0,100,0.00,,,0.17,Wunderground v.1.13,2013-06-11 05:10:00,
2013-06-11 06:20:00,54.7,54.7,29.56,WSW,248,5.0,10.0,100,0.00,,,0.17,Wunderground v.1.13,2013-06-11 05:20:00,
2013-06-11 06:30:00,54.8,54.8,29.56,WSW,248,5.0,8.0,100,0.00,,,0.17,Wunderground v.1.13,2013-06-11 05:30:00,
2013-06-11 06:40:00,54.9,54.9,29.57,WSW,248,6.0,10.0,100,0.00,,,0.17,Wunderground v.1.13,2013-06-11 05:40:00,
2013-06-11 06:50:00,54.9,54.9,29.57,WSW,248,6.0,10.0,100,0.00,,,0.17,Wunderground v.1.13,2013-06-11 05:50:00,
2013-06-11 07:00:00,54.9,54.9,29.57,WSW,248,4.0,7.0,100,0.00,,,0.17,Wunderground v.1.13,2013-06-11 06:00:00,
2013-06-11 07:10:00,55.2,55.2,29.58,WSW,248,3.0,7.0,100,0.00,,,0.17,Wunderground v.1.13,2013-06-11 06:10:00,
2013-06-11 07:20:00,55.2,55.2,29.58,WSW,248,3.0,7.0,100,0.00,,,0.17,Wunderground v.1.13,2013-06-11 06:20:00,
2013-06-11 07:30:00,55.5,55.5,29.58,WSW,248,5.0,10.0,100,0.00,,,0.17,Wunderground v.1.13,2013-06-11 06:30:00,
2013-06-11 07:40:00,55.2,55.2,29.59,West,270,5.0,12.0,100,0.00,,,0.17,Wunderground v.1.13,2013-06-11 06:40:00,
2013-06-11 07:50:00,55.2,55.2,29.59,West,270,5.0,12.0,100,0.00,,,0.17,Wunderground v.1.13,2013-06-11 06:50:00,
2013-06-11 08:00:00,55.4,55.4,29.59,West,270,5.0,10.0,100,0.00,,,0.17,Wunderground v.1.13,2013-06-11 07:00:00,
2013-06-11 08:10:00,55.8,55.8,29.59,West,272,4.0,6.0,100,0.00,,,0.17,Wunderground v.1.13,2013-06-11 07:10:00,
2013-06-11 08:20:00,56.1,56.1,29.60,West,263,6.0,9.0,100,0.00,,,0.17,Wunderground v.1.13,2013-06-11 07:20:00,
2013-06-11 08:30:00,56.4,56.4,29.61,West,264,6.0,6.0,100,0.00,,,0.17,Wunderground v.1.13,2013-06-11 07:30:00,
2013-06-11 08:40:00,56.7,56.7,29.61,West,270,6.0,9.0,100,0.00,,,0.17,Wunderground v.1.13,2013-06-11 07:40:00,
2013-06-11 08:50:00,56.3,56.3,29.62,WSW,253,7.0,7.0,100,0.00,,,0.17,Wunderground v.1.13,2013-06-11 07:50:00,
2013-06-11 09:00:00,56.3,56.3,29.62,SW,234,9.0,11.0,100,0.00,,,0.17,Wunderground v.1.13,2013-06-11 08:00:00,
2013-06-11 09:10:00,56.2,56.2,29.63,SW,225,9.0,14.0,100,0.00,,,0.33,Wunderground v.1.13,2013-06-11 08:10:00,
2013-06-11 09:20:00,56.2,56.2,29.63,SW,225,9.0,14.0,100,0.00,,,0.33,Wunderground v.1.13,2013-06-11 08:20:00,
2013-06-11 09:30:00,56.0,56.0,29.64,SW,225,10.0,19.0,100,0.00,,,0.33,Wunderground v.1.13,2013-06-11 08:30:00,
2013-06-11 09:40:00,55.9,55.9,29.64,WSW,248,10.0,16.0,100,0.00,,,0.33,Wunderground v.1.13,2013-06-11 08:40:00,
2013-06-11 09:50:00,55.9,55.9,29.64,WSW,248,10.0,16.0,100,0.00,,,0.33,Wunderground v.1.13,2013-06-11 08:50:00,
2013-06-11 10:00:00,56.1,56.1,29.64,SW,225,10.0,17.0,100,0.00,,,0.33,Wunderground v.1.13,2013-06-11 09:00:00,
2013-06-11 10:10:00,56.2,56.2,29.64,West,270,8.0,13.0,100,0.00,,,0.33,Wunderground v.1.13,2013-06-11 09:10:00,
2013-06-11 23:10:00,55.0,55.0,29.57,SW,217,7.0,9.0,100,0.00,,,0.33,Wunderground v.1.13,2013-06-11 22:10:00,
2013-06-11 23:20:00,55.0,55.0,29.57,SW,225,8.0,14.0,100,0.00,,,0.33,Wunderground v.1.13,2013-06-11 22:20:00,
2013-06-11 23:30:00,55.0,55.0,29.57,SW,225,9.0,18.0,100,0.00,,,0.33,Wunderground v.1.13,2013-06-11 22:30:00,
2013-06-11 23:40:00,55.0,55.0,29.56,SW,225,8.0,15.0,100,0.00,,,0.33,Wunderground v.1.13,2013-06-11 22:40:00,
2013-06-11 23:50:00,55.0,55.0,29.56,SW,225,8.0,15.0,100,0.00,,,0.33,Wunderground v.1.13,2013-06-11 22:50:00,